Time;durP1;ratioP1;P1;durP2;ratioP2;P2;SDS_P1;SDS_P2;PMS_P1;PMS_P2;Temp;Humidity;BMP_temperature;BMP_pressure;BME280_temperature;BME280_humidity;BME280_pressure;Samples;Min_cycle;Max_cycle;Signal;HPM_P1;HPM_P2
2022/06/25 00:00:48;;;;;;;0.85;0.68;;;23.90;54.40;;;;;;6180438;28;20023;-69
2022/06/25 00:03:49;;;;;;;2.58;0.85;;;23.80;54.10;;;;;;6170972;28;20126;-70
2022/06/25 00:06:50;;;;;;;1.75;0.80;;;23.70;54.40;;;;;;6149996;28;20038;-70
2022/06/25 00:09:51;;;;;;;5.72;0.75;;;23.60;54.60;;;;;;6165828;28;20460;-70
2022/06/25 00:12:53;;;;;;;1.08;0.90;;;23.60;54.90;;;;;;6173978;28;20057;-70
2022/06/25 00:15:54;;;;;;;1.67;0.80;;;23.50;55.00;;;;;;6181269;28;20034;-70
2022/06/25 00:18:55;;;;;;;1.10;0.80;;;23.50;55.20;;;;;;6179316;28;20038;-71
2022/06/25 00:21:56;;;;;;;1.52;0.70;;;23.40;55.30;;;;;;6187627;28;20047;-70
2022/06/25 00:24:57;;;;;;;3.28;0.90;;;23.40;55.40;;;;;;6151532;28;20039;-70
2022/06/25 00:27:58;;;;;;;0.75;0.63;;;23.30;55.60;;;;;;6174806;28;20200;-70
2022/06/25 00:30:59;;;;;;;5.05;1.17;;;23.20;55.80;;;;;;6173811;28;20053;-70
2022/06/25 00:34:00;;;;;;;4.82;1.08;;;23.20;56.00;;;;;;6168782;28;20033;-70
2022/06/25 00:37:02;;;;;;;3.95;0.75;;;23.10;56.30;;;;;;6165271;28;20038;-71
2022/06/25 00:40:03;;;;;;;3.85;0.90;;;23.10;56.60;;;;;;6181746;28;20023;-70
2022/06/25 00:43:04;;;;;;;2.13;1.00;;;23.00;56.90;;;;;;6151089;28;20038;-70
2022/06/25 00:46:06;;;;;;;0.80;0.70;;;23.00;57.00;;;;;;6183853;28;20061;-70
2022/06/25 00:49:07;;;;;;;0.95;0.60;;;22.90;57.00;;;;;;6163428;28;20093;-71
2022/06/25 00:52:16;;;;;;;3.30;0.88;;;22.90;57.00;;;;;;6169007;28;20027;-70
2022/06/25 00:55:20;;;;;;;1.63;0.98;;;22.90;57.10;;;;;;6186027;28;20035;-70
2022/06/25 00:58:23;;;;;;;7.97;0.73;;;22.90;57.10;;;;;;6173482;28;20563;-71
2022/06/25 01:01:25;;;;;;;1.00;0.85;;;22.90;57.20;;;;;;6163290;28;20034;-71
2022/06/25 01:04:26;;;;;;;3.75;0.82;;;22.90;57.20;;;;;;6175444;28;20113;-71
2022/06/25 01:07:28;;;;;;;3.95;0.85;;;22.80;57.20;;;;;;6164161;28;20035;-70
2022/06/25 01:10:29;;;;;;;1.02;0.65;;;22.80;57.20;;;;;;6179066;28;20023;-70
2022/06/25 01:13:30;;;;;;;2.90;1.05;;;22.80;57.20;;;;;;6153941;28;20045;-70
2022/06/25 01:16:32;;;;;;;0.80;0.77;;;22.80;57.30;;;;;;6169369;28;20062;-70
2022/06/25 01:19:36;;;;;;;4.68;0.90;;;22.80;57.30;;;;;;6168807;28;20451;-71
2022/06/25 01:22:37;;;;;;;6.10;0.80;;;22.70;57.30;;;;;;6160868;28;20051;-70
2022/06/25 01:25:39;;;;;;;2.30;0.93;;;22.80;57.30;;;;;;6154742;28;20031;-70
2022/06/25 01:28:41;;;;;;;1.38;0.88;;;22.80;57.30;;;;;;6156882;28;20103;-70
2022/06/25 01:31:42;;;;;;;3.83;0.75;;;22.70;57.20;;;;;;6157528;28;20035;-71
2022/06/25 01:34:43;;;;;;;1.13;0.80;;;22.80;57.30;;;;;;6161950;28;20058;-71
2022/06/25 01:37:44;;;;;;;5.07;0.68;;;22.70;57.30;;;;;;6164994;28;20045;-71
2022/06/25 01:40:45;;;;;;;3.47;0.95;;;22.70;57.40;;;;;;6159152;28;20472;-71
2022/06/25 01:43:46;;;;;;;3.20;0.90;;;22.70;57.50;;;;;;6154603;28;20027;-70
2022/06/25 01:46:48;;;;;;;2.65;0.90;;;22.60;57.50;;;;;;6152753;28;20019;-70
2022/06/25 01:49:49;;;;;;;1.27;0.80;;;22.60;57.60;;;;;;6155431;28;20488;-71
2022/06/25 01:52:50;;;;;;;8.65;1.00;;;22.60;57.70;;;;;;6154210;28;20026;-70
2022/06/25 01:55:51;;;;;;;1.15;0.90;;;22.50;57.70;;;;;;6169948;28;20039;-71
2022/06/25 01:58:53;;;;;;;2.25;1.73;;;22.50;57.80;;;;;;6156733;28;20043;-70
2022/06/25 02:01:54;;;;;;;1.58;0.60;;;22.50;57.90;;;;;;6159865;28;20263;-70
2022/06/25 02:04:55;;;;;;;2.95;0.82;;;22.50;57.90;;;;;;6155642;28;20050;-70
2022/06/25 02:07:56;;;;;;;5.78;0.90;;;22.50;57.90;;;;;;6163643;28;20023;-70
2022/06/25 02:10:57;;;;;;;1.38;0.95;;;22.50;57.80;;;;;;6154870;28;20043;-71
2022/06/25 02:13:58;;;;;;;2.97;0.85;;;22.50;57.80;;;;;;6147954;28;20465;-70
2022/06/25 02:17:02;;;;;;;2.00;0.90;;;22.50;57.90;;;;;;6167959;28;20042;-71
2022/06/25 02:20:05;;;;;;;6.03;0.82;;;22.50;57.90;;;;;;6161186;28;20070;-71
2022/06/25 02:23:07;;;;;;;3.42;0.88;;;22.50;58.00;;;;;;6178186;28;20051;-71
2022/06/25 02:26:08;;;;;;;1.38;0.95;;;22.50;58.00;;;;;;6169980;28;20033;-71
2022/06/25 02:29:09;;;;;;;5.55;1.25;;;22.50;58.00;;;;;;6168634;28;20026;-71
2022/06/25 02:32:10;;;;;;;0.90;0.80;;;22.50;58.10;;;;;;6172705;28;20471;-71
2022/06/25 02:35:11;;;;;;;4.85;0.70;;;22.50;58.10;;;;;;6165459;28;20452;-72
2022/06/25 02:38:13;;;;;;;4.32;0.80;;;22.50;58.20;;;;;;6171942;28;20026;-70
2022/06/25 02:41:16;;;;;;;1.70;0.60;;;22.50;58.20;;;;;;6173605;28;20034;-70
2022/06/25 02:44:19;;;;;;;4.45;0.98;;;22.50;58.20;;;;;;6172140;28;20034;-70
2022/06/25 02:47:27;;;;;;;0.85;0.70;;;22.40;58.30;;;;;;6182741;28;20038;-71
2022/06/25 02:50:54;;;;;;;6.40;0.90;;;22.40;58.30;;;;;;6174366;28;20038;-70
2022/06/25 02:53:55;;;;;;;3.53;1.13;;;22.30;58.40;;;;;;6188804;28;20037;-70
2022/06/25 03:00:20;;;;;;;1.95;1.35;;;22.20;58.70;;;;;;6178935;28;20682;-70
2022/06/25 03:03:21;;;;;;;1.02;0.93;;;22.20;58.80;;;;;;6173334;28;20058;-70
2022/06/25 03:06:23;;;;;;;3.05;0.68;;;22.20;58.90;;;;;;6175281;28;20038;-70
2022/06/25 03:09:24;;;;;;;0.85;0.85;;;22.10;59.00;;;;;;6171586;28;20026;-69
2022/06/25 03:12:26;;;;;;;0.75;0.75;;;22.10;59.10;;;;;;6173841;28;20038;-69
2022/06/25 03:15:38;;;;;;;1.60;0.90;;;22.10;59.10;;;;;;6159214;28;20376;-70
2022/06/25 03:18:39;;;;;;;5.28;1.00;;;22.10;59.10;;;;;;6154038;28;20475;-69
2022/06/25 03:21:59;;;;;;;3.60;0.80;;;22.10;59.10;;;;;;6179097;28;20133;-69
2022/06/25 03:25:00;;;;;;;3.03;1.00;;;22.10;59.10;;;;;;6175784;28;20195;-69
2022/06/25 03:28:01;;;;;;;0.98;0.88;;;22.10;59.10;;;;;;6149146;28;20027;-69
2022/06/25 03:31:03;;;;;;;2.65;1.10;;;22.10;59.20;;;;;;6170366;28;20034;-70
2022/06/25 03:34:04;;;;;;;1.25;1.00;;;22.00;59.30;;;;;;6153928;28;20065;-70
2022/06/25 03:37:18;;;;;;;3.08;1.23;;;22.00;59.40;;;;;;6175047;28;20035;-70
2022/06/25 03:40:20;;;;;;;6.32;2.25;;;22.00;59.50;;;;;;6172351;28;20042;-70
2022/06/25 03:43:21;;;;;;;41.63;15.90;;;22.00;59.50;;;;;;6172937;28;20038;-70
2022/06/25 03:46:23;;;;;;;25.83;10.80;;;22.00;59.50;;;;;;6167304;28;20097;-70
2022/06/25 03:49:24;;;;;;;19.40;6.63;;;21.90;59.60;;;;;;6177034;28;20034;-70
2022/06/25 03:52:28;;;;;;;9.43;3.90;;;21.90;59.60;;;;;;6170088;28;20031;-70
2022/06/25 03:55:29;;;;;;;23.35;7.90;;;21.80;59.70;;;;;;6173144;28;20058;-70
2022/06/25 03:58:31;;;;;;;19.23;7.13;;;21.80;59.90;;;;;;6173113;28;20026;-70
2022/06/25 04:01:32;;;;;;;9.63;4.85;;;21.80;60.00;;;;;;6169112;28;20050;-70
2022/06/25 04:04:34;;;;;;;11.73;3.75;;;21.80;60.10;;;;;;6165542;28;20031;-70
2022/06/25 04:07:36;;;;;;;4.93;2.10;;;21.80;60.10;;;;;;6179604;28;20018;-70
2022/06/25 04:10:41;;;;;;;3.58;1.90;;;21.80;60.20;;;;;;6152918;28;20031;-70
2022/06/25 04:13:42;;;;;;;2.83;1.25;;;21.80;60.40;;;;;;6166388;28;20353;-69
2022/06/25 04:16:45;;;;;;;1.67;1.10;;;21.80;60.40;;;;;;6167679;28;20085;-69
2022/06/25 04:19:49;;;;;;;1.15;1.02;;;21.80;60.40;;;;;;6165459;28;20113;-70
2022/06/25 04:22:52;;;;;;;4.25;0.70;;;21.80;60.40;;;;;;6173166;28;20133;-69
2022/06/25 04:25:54;;;;;;;2.75;1.00;;;21.80;60.30;;;;;;6170108;28;20045;-69
2022/06/25 04:29:04;;;;;;;2.17;1.17;;;21.80;60.20;;;;;;6149319;28;20035;-69
2022/06/25 04:32:17;;;;;;;11.27;0.82;;;21.80;60.10;;;;;;6153467;28;20526;-69
2022/06/25 04:35:57;;;;;;;2.90;0.98;;;21.80;60.00;;;;;;6118150;29;20370;-69
2022/06/25 04:39:14;;;;;;;8.73;0.88;;;21.70;60.00;;;;;;6086939;29;20099;-69
2022/06/25 04:42:16;;;;;;;4.68;0.68;;;21.80;59.90;;;;;;6099107;29;20032;-70
2022/06/25 04:45:18;;;;;;;0.68;0.63;;;21.80;59.90;;;;;;6104966;29;20036;-70
2022/06/25 04:48:33;;;;;;;2.45;0.80;;;21.80;59.80;;;;;;6109266;29;20043;-70
2022/06/25 04:52:01;;;;;;;1.17;0.90;;;21.80;59.70;;;;;;6104895;29;20036;-70
2022/06/25 04:55:02;;;;;;;5.15;1.20;;;21.80;59.60;;;;;;6104623;29;20040;-70
2022/06/25 04:58:03;;;;;;;2.00;0.80;;;21.80;59.70;;;;;;6109942;29;20071;-70
2022/06/25 05:01:25;;;;;;;1.52;0.93;;;21.80;59.70;;;;;;6056819;29;20159;-70
2022/06/25 05:04:26;;;;;;;1.83;0.95;;;21.90;59.80;;;;;;6061652;29;20033;-70
2022/06/25 05:07:27;;;;;;;1.95;0.90;;;21.90;59.70;;;;;;6090107;29;20466;-69
2022/06/25 05:10:28;;;;;;;3.50;1.13;;;21.80;59.60;;;;;;6114852;29;20420;-70
2022/06/25 05:13:29;;;;;;;3.75;1.00;;;21.80;59.70;;;;;;6105525;29;20127;-70
2022/06/25 05:16:31;;;;;;;0.88;0.80;;;21.80;59.90;;;;;;6098300;29;20028;-70
2022/06/25 05:19:32;;;;;;;3.13;0.90;;;21.80;60.70;;;;;;6089574;29;20039;-70
2022/06/25 05:22:33;;;;;;;3.90;0.80;;;21.70;60.00;;;;;;6117877;29;20056;-70
2022/06/25 05:25:35;;;;;;;3.03;0.88;;;21.70;60.10;;;;;;6105008;29;20043;-70
2022/06/25 05:28:37;;;;;;;2.08;0.80;;;21.60;60.10;;;;;;6119224;29;20152;-70
2022/06/25 05:31:38;;;;;;;3.90;0.93;;;21.60;60.20;;;;;;6080558;29;20458;-71
2022/06/25 05:34:39;;;;;;;4.75;1.10;;;21.60;60.30;;;;;;6086479;29;20043;-71
2022/06/25 05:37:40;;;;;;;1.55;1.08;;;21.70;60.20;;;;;;6128694;28;20492;-70
2022/06/25 05:40:42;;;;;;;6.90;1.30;;;21.70;60.00;;;;;;6173016;28;20362;-70
2022/06/25 05:43:43;;;;;;;1.77;1.10;;;21.70;59.90;;;;;;6149469;28;20027;-71
2022/06/25 05:46:44;;;;;;;7.70;0.75;;;21.70;59.90;;;;;;6178800;28;20265;-70
2022/06/25 05:49:46;;;;;;;1.48;1.00;;;21.80;59.80;;;;;;6170995;28;20035;-71
2022/06/25 05:52:47;;;;;;;2.60;0.82;;;21.80;59.70;;;;;;6175952;28;20046;-70
2022/06/25 05:55:47;;;;;;;3.95;0.82;;;21.90;59.50;;;;;;6167809;28;20039;-71
2022/06/25 05:58:48;;;;;;;2.13;0.77;;;22.00;59.40;;;;;;6154913;28;20031;-70
2022/06/25 06:01:50;;;;;;;5.90;0.73;;;22.00;59.20;;;;;;6186003;28;20226;-70
2022/06/25 06:04:51;;;;;;;10.00;0.95;;;22.10;59.80;;;;;;6166908;28;20380;-70
2022/06/25 06:07:52;;;;;;;4.72;0.90;;;22.30;58.90;;;;;;6152136;28;20034;-70
2022/06/25 06:10:53;;;;;;;2.95;0.70;;;22.40;58.40;;;;;;6176057;28;20027;-71
2022/06/25 06:13:54;;;;;;;6.97;1.17;;;22.40;58.00;;;;;;6166349;28;20100;-70
2022/06/25 06:16:56;;;;;;;3.28;0.60;;;22.60;57.90;;;;;;6166500;28;20026;-71
2022/06/25 06:19:57;;;;;;;2.33;0.70;;;22.70;57.60;;;;;;6175107;28;20039;-71
2022/06/25 06:22:58;;;;;;;1.17;0.93;;;22.80;57.20;;;;;;6176401;28;20057;-71
2022/06/25 06:25:59;;;;;;;2.08;0.70;;;22.80;57.00;;;;;;6149657;28;20039;-70
2022/06/25 06:29:00;;;;;;;4.13;0.73;;;22.90;56.90;;;;;;6177912;28;20097;-71
2022/06/25 06:32:01;;;;;;;1.67;0.80;;;23.00;56.70;;;;;;6176814;28;20045;-71
2022/06/25 06:35:03;;;;;;;1.00;0.80;;;23.10;56.30;;;;;;6164976;28;20049;-70
2022/06/25 06:38:04;;;;;;;3.20;1.17;;;23.20;56.10;;;;;;6174001;28;20034;-71
2022/06/25 06:41:05;;;;;;;1.63;0.90;;;23.30;56.00;;;;;;6156568;28;20353;-71
2022/06/25 06:44:07;;;;;;;6.78;0.90;;;23.40;55.90;;;;;;6166574;28;20035;-71
2022/06/25 06:47:08;;;;;;;1.00;0.90;;;23.50;55.60;;;;;;6162988;28;20038;-69
2022/06/25 06:50:10;;;;;;;1.58;0.90;;;23.60;55.30;;;;;;6167190;28;20414;-70
2022/06/25 06:53:11;;;;;;;0.85;0.68;;;23.70;55.10;;;;;;6169077;28;20042;-70
2022/06/25 06:56:12;;;;;;;1.80;0.70;;;23.80;54.80;;;;;;6177321;28;20685;-70
2022/06/25 06:59:13;;;;;;;1.38;0.75;;;24.00;54.50;;;;;;6176288;28;20031;-69
2022/06/25 07:02:14;;;;;;;2.90;1.27;;;24.10;54.10;;;;;;6187388;28;20058;-70
2022/06/25 07:05:15;;;;;;;1.20;0.75;;;24.20;53.50;;;;;;6150908;28;20047;-69
2022/06/25 07:08:16;;;;;;;1.38;0.75;;;24.20;53.20;;;;;;6186394;28;20363;-69
2022/06/25 07:11:29;;;;;;;1.33;1.00;;;24.30;53.10;;;;;;6170943;28;20055;-70
2022/06/25 07:14:30;;;;;;;2.03;0.93;;;24.40;52.80;;;;;;6184345;28;20145;-70
2022/06/25 07:17:32;;;;;;;1.95;0.80;;;24.50;52.50;;;;;;6182900;28;20048;-70
2022/06/25 07:20:33;;;;;;;1.20;0.80;;;24.70;52.20;;;;;;6172165;28;20464;-70
2022/06/25 07:23:34;;;;;;;3.90;0.77;;;24.70;51.90;;;;;;6188101;28;20070;-70
2022/06/25 07:26:35;;;;;;;1.75;0.68;;;24.80;51.60;;;;;;6182309;28;20026;-70
2022/06/25 07:29:36;;;;;;;0.73;0.60;;;25.00;51.20;;;;;;6182133;28;20022;-70
2022/06/25 07:32:37;;;;;;;3.20;0.90;;;25.10;50.60;;;;;;6167793;28;20027;-70
2022/06/25 07:35:38;;;;;;;0.98;0.60;;;25.10;50.20;;;;;;6167470;28;20030;-70
2022/06/25 07:38:39;;;;;;;4.65;0.80;;;25.20;50.00;;;;;;6170455;28;20477;-70
2022/06/25 07:41:40;;;;;;;4.60;0.90;;;25.20;49.80;;;;;;6184933;28;20085;-70
2022/06/25 07:44:41;;;;;;;3.55;0.90;;;25.30;49.60;;;;;;6194060;28;20376;-71
2022/06/25 07:47:42;;;;;;;1.48;1.10;;;25.50;49.40;;;;;;6171052;28;20034;-70
2022/06/25 07:54:03;;;;;;;1.63;0.93;;;25.70;48.60;;;;;;6164182;28;20037;-70
2022/06/25 07:57:04;;;;;;;1.90;0.90;;;25.90;48.30;;;;;;6165017;28;20117;-70
2022/06/25 08:00:06;;;;;;;1.17;0.80;;;26.00;48.30;;;;;;6171713;28;20077;-70
2022/06/25 08:03:13;;;;;;;1.20;0.93;;;26.20;47.90;;;;;;6172308;28;20069;-70
2022/06/25 08:06:15;;;;;;;1.83;0.70;;;26.40;47.40;;;;;;6187189;28;20085;-70
2022/06/25 08:09:16;;;;;;;10.45;0.80;;;26.60;46.70;;;;;;6180566;28;20516;-70
2022/06/25 08:12:17;;;;;;;1.98;1.20;;;26.70;46.10;;;;;;6163749;28;20023;-70
2022/06/25 08:15:19;;;;;;;0.52;0.50;;;26.70;45.80;;;;;;6178145;28;20049;-70
2022/06/25 08:18:22;;;;;;;2.05;0.82;;;26.80;45.60;;;;;;6146220;28;20137;-70
2022/06/25 08:21:23;;;;;;;1.50;1.00;;;26.90;45.60;;;;;;6166306;28;20074;-70
2022/06/25 08:24:24;;;;;;;9.23;1.38;;;26.90;45.50;;;;;;6166991;28;20046;-71
2022/06/25 08:27:26;;;;;;;1.05;0.77;;;27.10;45.50;;;;;;6162400;28;20375;-70
2022/06/25 08:30:27;;;;;;;0.70;0.70;;;27.20;45.10;;;;;;6164598;28;20027;-71
2022/06/25 08:33:28;;;;;;;1.85;0.80;;;27.20;45.20;;;;;;6170247;28;20041;-72
2022/06/25 08:36:29;;;;;;;1.40;0.80;;;27.30;44.80;;;;;;6150276;28;20037;-71
2022/06/25 08:39:31;;;;;;;1.10;0.70;;;27.40;44.90;;;;;;6185242;28;20054;-71
2022/06/25 08:42:32;;;;;;;0.90;0.60;;;27.50;44.80;;;;;;6184266;28;20427;-71
2022/06/25 08:45:34;;;;;;;4.03;0.93;;;27.70;44.60;;;;;;6172288;28;20049;-72
2022/06/25 08:48:37;;;;;;;2.10;0.90;;;27.80;44.40;;;;;;6180553;28;20318;-70
2022/06/25 08:51:39;;;;;;;0.80;0.75;;;27.90;44.00;;;;;;6161084;28;20030;-70
2022/06/25 08:54:41;;;;;;;3.58;2.72;;;28.00;43.60;;;;;;6178301;28;20042;-70
2022/06/25 08:57:42;;;;;;;2.95;1.00;;;28.10;43.20;;;;;;6183013;28;20031;-71
2022/06/25 09:00:45;;;;;;;2.95;1.27;;;28.10;42.70;;;;;;6162032;28;20041;-70
2022/06/25 09:03:47;;;;;;;2.28;1.58;;;28.00;42.70;;;;;;6171124;28;20057;-70
2022/06/25 09:06:50;;;;;;;1.58;1.08;;;28.10;42.90;;;;;;6178250;28;20408;-70
2022/06/25 09:09:51;;;;;;;2.50;1.35;;;28.10;43.40;;;;;;6169446;28;20030;-70
2022/06/25 09:12:57;;;;;;;5.60;2.08;;;28.20;42.50;;;;;;6165241;28;20061;-70
2022/06/25 09:15:58;;;;;;;2.05;1.20;;;28.20;42.30;;;;;;6170069;28;20443;-70
2022/06/25 09:18:59;;;;;;;4.72;2.53;;;28.30;42.20;;;;;;6161567;28;20042;-70
2022/06/25 09:22:03;;;;;;;2.60;0.95;;;28.40;42.20;;;;;;6146481;28;20109;-70
2022/06/25 09:25:04;;;;;;;3.65;1.17;;;28.50;41.80;;;;;;6164987;28;20317;-70
2022/06/25 09:28:05;;;;;;;4.88;1.25;;;28.50;41.40;;;;;;6179994;28;20060;-70
2022/06/25 09:31:07;;;;;;;1.30;1.00;;;28.60;41.40;;;;;;6177968;28;20030;-70
2022/06/25 09:34:09;;;;;;;2.78;0.75;;;28.70;40.90;;;;;;6175996;28;20053;-70
2022/06/25 09:37:26;;;;;;;2.28;0.85;;;28.80;40.50;;;;;;6168704;28;20044;-70
2022/06/25 09:40:28;;;;;;;2.10;1.02;;;28.80;41.30;;;;;;6177671;28;20046;-71
2022/06/25 09:43:41;;;;;;;3.42;1.88;;;29.00;40.50;;;;;;6177652;28;20058;-70
2022/06/25 09:47:02;;;;;;;2.90;1.00;;;29.10;40.20;;;;;;6176780;28;20050;-71
2022/06/25 09:50:16;;;;;;;4.55;0.82;;;29.20;40.10;;;;;;6152749;28;20070;-70
2022/06/25 09:53:25;;;;;;;1.33;0.80;;;29.40;39.80;;;;;;6192600;28;20057;-71
2022/06/25 09:56:33;;;;;;;1.08;0.70;;;29.50;39.30;;;;;;6177915;28;20026;-70
2022/06/25 09:59:38;;;;;;;3.90;1.10;;;29.60;39.20;;;;;;6158603;28;20030;-70
2022/06/25 10:02:39;;;;;;;5.00;0.82;;;29.80;38.90;;;;;;6168734;28;20037;-70
2022/06/25 10:05:41;;;;;;;1.50;0.60;;;29.90;38.40;;;;;;6178031;28;20023;-71
2022/06/25 10:08:51;;;;;;;1.52;0.70;;;30.00;38.40;;;;;;6178690;28;20102;-70
2022/06/25 10:11:53;;;;;;;4.00;0.80;;;30.10;38.00;;;;;;6162373;28;20050;-70
2022/06/25 10:14:54;;;;;;;2.72;0.93;;;30.20;38.00;;;;;;6170452;28;20035;-70
2022/06/25 10:17:55;;;;;;;1.10;1.00;;;30.30;37.70;;;;;;6166775;28;20045;-70
2022/06/25 10:20:57;;;;;;;1.42;1.00;;;30.50;37.60;;;;;;6152160;28;20034;-71
2022/06/25 10:24:04;;;;;;;3.05;1.00;;;30.70;37.30;;;;;;6163396;28;20034;-71
2022/06/25 10:27:06;;;;;;;1.40;0.90;;;30.80;37.20;;;;;;6163136;28;20140;-71
2022/06/25 10:30:08;;;;;;;1.17;0.70;;;30.90;37.10;;;;;;6163934;28;20496;-70
2022/06/25 10:33:09;;;;;;;2.88;0.70;;;31.00;36.70;;;;;;6178778;28;20038;-70
2022/06/25 10:36:10;;;;;;;5.55;1.05;;;31.00;36.40;;;;;;6174759;28;20062;-70
2022/06/25 10:39:27;;;;;;;0.80;0.70;;;31.00;36.30;;;;;;6189709;28;20030;-70
2022/06/25 10:45:49;;;;;;;1.10;0.90;;;31.00;36.30;;;;;;6182326;28;20082;-70
2022/06/25 10:49:11;;;;;;;5.63;0.82;;;31.20;36.20;;;;;;6181683;28;20069;-71
2022/06/25 10:52:16;;;;;;;2.30;0.88;;;31.30;36.20;;;;;;6177087;28;20031;-71
2022/06/25 10:55:17;;;;;;;4.00;0.80;;;31.40;36.20;;;;;;6168456;28;20035;-71
2022/06/25 10:58:24;;;;;;;2.22;0.75;;;31.40;36.30;;;;;;6173348;28;20110;-71
2022/06/25 11:01:28;;;;;;;1.60;0.70;;;31.40;36.20;;;;;;6173033;28;20463;-70
2022/06/25 11:04:31;;;;;;;1.63;0.70;;;31.40;36.10;;;;;;6169992;28;20034;-70
2022/06/25 11:07:32;;;;;;;1.08;0.98;;;31.40;36.20;;;;;;6169348;28;20031;-70
2022/06/25 11:10:35;;;;;;;0.82;0.65;;;32.00;35.50;;;;;;6193153;28;20014;-70
2022/06/25 11:13:39;;;;;;;1.40;0.82;;;33.10;34.00;;;;;;6185622;28;20045;-70
2022/06/25 11:16:40;;;;;;;1.60;0.90;;;33.90;32.70;;;;;;6164074;28;20415;-71
2022/06/25 11:19:42;;;;;;;4.95;0.80;;;34.80;31.50;;;;;;6181888;28;20102;-70
2022/06/25 11:22:50;;;;;;;2.35;1.60;;;35.30;30.80;;;;;;6170368;28;20046;-70
2022/06/25 11:29:21;;;;;;;4.70;0.80;;;36.60;29.20;;;;;;6171491;28;20045;-70
2022/06/25 11:32:25;;;;;;;0.70;0.70;;;37.10;28.60;;;;;;6172264;28;20031;-71
2022/06/25 11:35:38;;;;;;;4.10;0.85;;;37.50;28.20;;;;;;6174328;28;20372;-69
2022/06/25 11:38:41;;;;;;;2.33;0.70;;;37.70;27.40;;;;;;6176697;28;20426;-71
2022/06/25 11:41:48;;;;;;;0.63;0.55;;;37.80;27.30;;;;;;6184441;28;20030;-71
2022/06/25 11:44:51;;;;;;;1.30;0.80;;;37.90;27.10;;;;;;6170158;28;20175;-70
2022/06/25 11:47:52;;;;;;;0.70;0.70;;;38.00;26.80;;;;;;6183125;28;20027;-70
2022/06/25 11:50:59;;;;;;;1.98;0.80;;;38.20;26.60;;;;;;6184467;28;20413;-70
2022/06/25 11:54:06;;;;;;;1.05;0.73;;;38.30;26.20;;;;;;6162416;28;20475;-70
2022/06/25 11:57:22;;;;;;;3.40;0.82;;;38.40;26.10;;;;;;6178509;28;20042;-70
2022/06/25 12:00:24;;;;;;;0.95;0.70;;;38.70;25.90;;;;;;6179814;28;20128;-71
2022/06/25 12:03:27;;;;;;;0.60;0.60;;;38.70;25.70;;;;;;6165749;28;20046;-70
2022/06/25 12:06:28;;;;;;;0.50;0.50;;;38.60;25.60;;;;;;6166743;28;20042;-70
2022/06/25 12:09:29;;;;;;;0.75;0.60;;;38.50;25.60;;;;;;6168824;28;20035;-70
2022/06/25 12:12:31;;;;;;;2.50;0.60;;;38.70;25.40;;;;;;6169507;28;20434;-70
2022/06/25 12:15:32;;;;;;;2.03;0.57;;;39.10;24.90;;;;;;6182418;28;20110;-70
2022/06/25 12:18:35;;;;;;;1.10;0.50;;;39.40;24.30;;;;;;6175004;28;20038;-69
2022/06/25 12:21:36;;;;;;;1.67;0.85;;;39.50;24.10;;;;;;6167455;28;20424;-70
2022/06/25 12:24:46;;;;;;;0.60;0.60;;;39.70;23.80;;;;;;6173955;28;20035;-70
2022/06/25 12:27:50;;;;;;;1.42;0.60;;;40.00;23.70;;;;;;6169222;28;20314;-70
2022/06/25 12:30:51;;;;;;;2.03;0.50;;;40.20;23.60;;;;;;6166748;28;20361;-71
2022/06/25 12:33:52;;;;;;;0.70;0.70;;;40.20;23.40;;;;;;6177095;28;20053;-71
2022/06/25 12:36:55;;;;;;;0.68;0.68;;;40.10;23.50;;;;;;6170727;28;20376;-71
2022/06/25 12:39:59;;;;;;;0.60;0.45;;;39.50;24.00;;;;;;6173448;28;20074;-70
2022/06/25 12:43:01;;;;;;;0.50;0.50;;;39.10;24.60;;;;;;6162352;28;20062;-71
2022/06/25 12:46:10;;;;;;;2.75;0.63;;;38.70;24.90;;;;;;6188986;28;20057;-71
2022/06/25 12:49:11;;;;;;;0.60;0.60;;;38.80;24.70;;;;;;6186832;28;20050;-71
2022/06/25 12:52:16;;;;;;;2.63;0.60;;;38.90;24.70;;;;;;6178396;28;20030;-71
2022/06/25 12:55:23;;;;;;;5.15;0.70;;;39.00;24.50;;;;;;6168732;28;20034;-71
2022/06/25 12:58:36;;;;;;;2.30;0.70;;;39.20;24.30;;;;;;6162750;28;20085;-71
2022/06/25 13:01:37;;;;;;;0.77;0.60;;;39.50;24.10;;;;;;6157649;28;20282;-71
2022/06/25 13:04:38;;;;;;;0.65;0.60;;;39.40;24.00;;;;;;6170635;28;20105;-71
2022/06/25 13:07:39;;;;;;;1.70;0.60;;;38.90;24.30;;;;;;6168007;28;20109;-70
2022/06/25 13:10:42;;;;;;;2.40;0.75;;;38.70;24.60;;;;;;6183997;28;20045;-70
2022/06/25 13:13:44;;;;;;;0.40;0.40;;;38.60;24.50;;;;;;6172201;28;20517;-71
2022/06/25 13:16:45;;;;;;;0.98;0.60;;;38.40;24.80;;;;;;6182534;28;20031;-70
2022/06/25 13:19:46;;;;;;;0.70;0.70;;;38.40;25.00;;;;;;6166873;28;20046;-70
2022/06/25 13:22:47;;;;;;;1.17;0.70;;;38.70;25.00;;;;;;6179577;28;20129;-70
2022/06/25 13:25:48;;;;;;;2.10;0.70;;;39.30;24.50;;;;;;6166201;28;20054;-70
2022/06/25 13:28:49;;;;;;;2.42;0.70;;;40.10;23.90;;;;;;6177517;28;20022;-70
2022/06/25 13:31:52;;;;;;;3.60;0.50;;;40.60;23.10;;;;;;6162234;28;20065;-70
2022/06/25 13:34:53;;;;;;;1.60;0.60;;;40.90;23.00;;;;;;6163857;28;20062;-70
2022/06/25 13:37:54;;;;;;;0.73;0.60;;;40.70;22.70;;;;;;6166989;28;20044;-70
2022/06/25 13:40:56;;;;;;;0.88;0.60;;;40.40;22.80;;;;;;6169144;28;20039;-70
2022/06/25 13:43:57;;;;;;;0.50;0.50;;;39.90;23.30;;;;;;6170523;28;20110;-70
2022/06/25 13:46:58;;;;;;;4.90;0.68;;;40.80;22.90;;;;;;6184490;28;20460;-70
2022/06/25 13:49:59;;;;;;;0.55;0.55;;;42.30;21.80;;;;;;6175215;28;20038;-70
2022/06/25 13:53:00;;;;;;;1.55;0.80;;;43.60;21.10;;;;;;6183311;28;20049;-70
2022/06/25 13:56:01;;;;;;;4.30;0.85;;;43.50;20.80;;;;;;6165703;28;20038;-71
2022/06/25 13:59:02;;;;;;;1.55;0.80;;;42.20;21.70;;;;;;6159898;28;20038;-70
2022/06/25 14:02:05;;;;;;;2.10;0.80;;;40.50;23.00;;;;;;6163285;28;20093;-70
2022/06/25 14:05:06;;;;;;;1.15;0.60;;;40.30;23.20;;;;;;6167783;28;20038;-71
2022/06/25 14:08:07;;;;;;;0.65;0.65;;;40.60;23.10;;;;;;6163664;28;20113;-70
2022/06/25 14:11:11;;;;;;;0.60;0.60;;;42.00;21.90;;;;;;6179666;28;20356;-70
2022/06/25 14:14:12;;;;;;;1.70;0.90;;;42.00;21.40;;;;;;6174523;28;20047;-70
2022/06/25 14:17:14;;;;;;;1.65;1.20;;;41.10;22.30;;;;;;6172378;28;20042;-70
2022/06/25 14:20:15;;;;;;;4.05;0.70;;;40.00;23.30;;;;;;6177167;28;20117;-70
2022/06/25 14:23:16;;;;;;;1.05;0.88;;;39.10;24.10;;;;;;6184066;28;20047;-71
2022/06/25 14:26:17;;;;;;;5.78;0.80;;;38.50;25.00;;;;;;6182382;28;20065;-71
2022/06/25 14:29:18;;;;;;;1.83;1.00;;;39.80;24.90;;;;;;6178984;28;20030;-70
2022/06/25 14:32:19;;;;;;;0.95;0.77;;;41.90;23.10;;;;;;6183560;28;20031;-71
2022/06/25 14:35:21;;;;;;;3.42;0.73;;;43.30;21.90;;;;;;6181306;28;20392;-70
2022/06/25 14:45:01;;;;;;;0.60;0.60;;;43.60;21.50;;;;;;6174246;28;20061;-71
2022/06/25 14:48:03;;;;;;;0.88;0.77;;;44.30;20.80;;;;;;6171804;28;20356;-71
2022/06/25 14:51:04;;;;;;;1.17;0.55;;;44.10;20.60;;;;;;6179178;28;20482;-71
2022/06/25 14:54:05;;;;;;;3.60;0.90;;;42.90;21.30;;;;;;6158858;28;20030;-71
2022/06/25 14:57:06;;;;;;;0.65;0.60;;;41.50;22.20;;;;;;6165229;28;20093;-71
2022/06/25 15:00:09;;;;;;;2.28;0.80;;;40.10;23.20;;;;;;6150050;28;20059;-70
2022/06/25 15:03:10;;;;;;;1.02;0.90;;;38.80;24.20;;;;;;6164870;28;20042;-71
2022/06/25 15:06:12;;;;;;;1.20;0.80;;;37.90;25.20;;;;;;6165003;28;20054;-72
2022/06/25 15:09:13;;;;;;;0.73;0.70;;;38.60;25.00;;;;;;6168772;28;20579;-70
2022/06/25 15:12:15;;;;;;;1.98;0.70;;;39.50;24.30;;;;;;6154301;28;20085;-71
2022/06/25 15:15:16;;;;;;;1.92;0.70;;;39.30;24.70;;;;;;6180756;28;20117;-71
2022/06/25 15:18:17;;;;;;;1.98;0.98;;;38.60;25.30;;;;;;6183274;28;20023;-71
2022/06/25 15:21:18;;;;;;;1.70;0.70;;;37.80;26.10;;;;;;6164630;28;20053;-70
2022/06/25 15:24:19;;;;;;;0.50;0.50;;;37.20;26.80;;;;;;6183471;28;20034;-70
2022/06/25 15:27:20;;;;;;;1.38;0.80;;;36.60;27.30;;;;;;6168350;28;20501;-70
2022/06/25 15:30:22;;;;;;;1.38;0.70;;;36.20;27.80;;;;;;6179936;28;20053;-69
2022/06/25 15:33:23;;;;;;;2.15;0.90;;;35.90;28.00;;;;;;6168684;28;20055;-69
2022/06/25 15:36:25;;;;;;;5.30;1.10;;;36.10;28.00;;;;;;6164667;28;20030;-70
2022/06/25 15:39:26;;;;;;;0.95;0.80;;;36.70;27.70;;;;;;6181278;28;20029;-69
2022/06/25 15:42:27;;;;;;;2.67;0.88;;;38.00;26.50;;;;;;6187517;28;20087;-71
2022/06/25 15:45:29;;;;;;;0.80;0.70;;;39.50;25.00;;;;;;6151343;28;20054;-69
2022/06/25 15:48:30;;;;;;;1.10;0.80;;;40.70;23.70;;;;;;6179058;28;20084;-70
2022/06/25 15:51:32;;;;;;;0.95;0.68;;;40.90;23.10;;;;;;6173303;28;20126;-70
2022/06/25 15:54:34;;;;;;;0.77;0.47;;;40.90;22.70;;;;;;6151938;28;20121;-70
2022/06/25 15:57:35;;;;;;;1.20;0.88;;;41.30;21.80;;;;;;6179179;28;20035;-70
2022/06/25 16:00:37;;;;;;;2.25;0.70;;;41.70;21.40;;;;;;6163703;28;20380;-70
2022/06/25 16:03:38;;;;;;;2.20;0.57;;;42.30;21.10;;;;;;6152689;28;20022;-70
2022/06/25 16:06:39;;;;;;;0.82;0.65;;;43.10;20.20;;;;;;6160218;28;20026;-70
2022/06/25 16:09:41;;;;;;;1.02;0.80;;;43.50;20.20;;;;;;6169891;28;20030;-70